sensor_id;sensor_type;location;lat;lon;timestamp;temperature;humidity
33739;DHT22;20063;51.730;11.110;2023-07-31T00:01:11;17.70;99.90
33739;DHT22;20063;51.730;11.110;2023-07-31T00:03:37;17.70;99.90
33739;DHT22;20063;51.730;11.110;2023-07-31T00:06:03;17.70;99.90
33739;DHT22;20063;51.730;11.110;2023-07-31T00:08:28;17.70;99.90
33739;DHT22;20063;51.730;11.110;2023-07-31T00:10:54;17.70;99.90
33739;DHT22;20063;51.730;11.110;2023-07-31T00:13:19;17.70;99.90
33739;DHT22;20063;51.730;11.110;2023-07-31T00:15:45;17.70;99.90
33739;DHT22;20063;51.730;11.110;2023-07-31T00:18:10;17.60;99.90
33739;DHT22;20063;51.730;11.110;2023-07-31T00:20:36;17.60;99.90
33739;DHT22;20063;51.730;11.110;2023-07-31T00:23:02;17.60;99.90
33739;DHT22;20063;51.730;11.110;2023-07-31T00:25:27;17.60;99.90
33739;DHT22;20063;51.730;11.110;2023-07-31T00:27:53;17.60;99.90
33739;DHT22;20063;51.730;11.110;2023-07-31T00:30:18;17.60;99.90
33739;DHT22;20063;51.730;11.110;2023-07-31T00:32:44;17.60;99.90
33739;DHT22;20063;51.730;11.110;2023-07-31T00:35:09;17.60;99.90
33739;DHT22;20063;51.730;11.110;2023-07-31T00:37:35;17.60;99.90
33739;DHT22;20063;51.730;11.110;2023-07-31T00:40:01;17.60;99.90
33739;DHT22;20063;51.730;11.110;2023-07-31T00:42:28;17.60;99.90
33739;DHT22;20063;51.730;11.110;2023-07-31T00:44:54;17.60;99.90
33739;DHT22;20063;51.730;11.110;2023-07-31T00:47:19;17.60;99.90
33739;DHT22;20063;51.730;11.110;2023-07-31T00:49:48;17.60;99.90
33739;DHT22;20063;51.730;11.110;2023-07-31T00:52:14;17.60;99.90
33739;DHT22;20063;51.730;11.110;2023-07-31T00:54:40;17.60;99.90
33739;DHT22;20063;51.730;11.110;2023-07-31T00:57:05;17.60;99.90
33739;DHT22;20063;51.730;11.110;2023-07-31T00:59:33;17.60;99.90
33739;DHT22;20063;51.730;11.110;2023-07-31T01:02:02;17.50;99.90
33739;DHT22;20063;51.730;11.110;2023-07-31T01:04:28;17.50;99.90
33739;DHT22;20063;51.730;11.110;2023-07-31T01:09:57;17.30;99.90
33739;DHT22;20063;51.730;11.110;2023-07-31T01:12:27;17.10;99.90
33739;DHT22;20063;51.730;11.110;2023-07-31T01:17:26;17.00;99.90
33739;DHT22;20063;51.730;11.110;2023-07-31T01:19:53;16.90;99.90
33739;DHT22;20063;51.730;11.110;2023-07-31T01:28:20;16.60;99.90
33739;DHT22;20063;51.730;11.110;2023-07-31T01:30:49;16.60;99.90
33739;DHT22;20063;51.730;11.110;2023-07-31T01:33:18;16.60;99.90
33739;DHT22;20063;51.730;11.110;2023-07-31T01:35:45;16.60;99.90
33739;DHT22;20063;51.730;11.110;2023-07-31T01:38:11;16.60;99.90
33739;DHT22;20063;51.730;11.110;2023-07-31T01:40:37;16.50;99.90
33739;DHT22;20063;51.730;11.110;2023-07-31T01:43:03;16.40;99.90
33739;DHT22;20063;51.730;11.110;2023-07-31T01:45:29;16.40;99.90
33739;DHT22;20063;51.730;11.110;2023-07-31T01:47:57;16.40;99.90
33739;DHT22;20063;51.730;11.110;2023-07-31T01:50:22;16.40;99.90
33739;DHT22;20063;51.730;11.110;2023-07-31T01:52:48;16.30;99.90
33739;DHT22;20063;51.730;11.110;2023-07-31T01:55:14;16.20;99.90
33739;DHT22;20063;51.730;11.110;2023-07-31T01:57:39;16.10;99.90
33739;DHT22;20063;51.730;11.110;2023-07-31T02:00:06;16.10;99.90
33739;DHT22;20063;51.730;11.110;2023-07-31T02:02:31;16.10;99.90
33739;DHT22;20063;51.730;11.110;2023-07-31T02:04:57;16.10;99.90
33739;DHT22;20063;51.730;11.110;2023-07-31T02:07:23;16.10;99.90
33739;DHT22;20063;51.730;11.110;2023-07-31T02:09:48;16.10;99.90
33739;DHT22;20063;51.730;11.110;2023-07-31T02:12:16;16.10;99.90
33739;DHT22;20063;51.730;11.110;2023-07-31T02:14:42;16.00;99.90
33739;DHT22;20063;51.730;11.110;2023-07-31T02:17:07;16.10;99.90
33739;DHT22;20063;51.730;11.110;2023-07-31T02:19:33;16.10;99.90
33739;DHT22;20063;51.730;11.110;2023-07-31T02:21:59;16.00;99.90
33739;DHT22;20063;51.730;11.110;2023-07-31T02:24:24;16.10;99.90
33739;DHT22;20063;51.730;11.110;2023-07-31T02:26:50;16.10;99.90
33739;DHT22;20063;51.730;11.110;2023-07-31T02:29:16;16.10;99.90
33739;DHT22;20063;51.730;11.110;2023-07-31T02:31:41;16.10;99.90
33739;DHT22;20063;51.730;11.110;2023-07-31T02:34:07;16.10;99.90
33739;DHT22;20063;51.730;11.110;2023-07-31T02:36:32;16.10;99.90
33739;DHT22;20063;51.730;11.110;2023-07-31T02:38:58;16.10;99.90
33739;DHT22;20063;51.730;11.110;2023-07-31T02:41:24;16.10;99.90
33739;DHT22;20063;51.730;11.110;2023-07-31T02:43:49;16.20;99.90
33739;DHT22;20063;51.730;11.110;2023-07-31T02:46:15;16.20;99.90
33739;DHT22;20063;51.730;11.110;2023-07-31T02:48:40;16.20;99.90
33739;DHT22;20063;51.730;11.110;2023-07-31T02:51:06;16.10;99.90
33739;DHT22;20063;51.730;11.110;2023-07-31T02:53:31;16.20;99.90
33739;DHT22;20063;51.730;11.110;2023-07-31T02:55:57;16.10;99.90
33739;DHT22;20063;51.730;11.110;2023-07-31T02:58:23;16.10;99.90
33739;DHT22;20063;51.730;11.110;2023-07-31T03:00:51;16.00;99.90
33739;DHT22;20063;51.730;11.110;2023-07-31T03:03:30;16.10;99.90
33739;DHT22;20063;51.730;11.110;2023-07-31T03:05:55;16.10;99.90
33739;DHT22;20063;51.730;11.110;2023-07-31T03:08:21;16.10;99.90
33739;DHT22;20063;51.730;11.110;2023-07-31T03:10:46;16.10;99.90
33739;DHT22;20063;51.730;11.110;2023-07-31T03:13:12;16.10;99.90
33739;DHT22;20063;51.730;11.110;2023-07-31T03:15:37;16.10;99.90
33739;DHT22;20063;51.730;11.110;2023-07-31T03:18:03;16.10;99.90
33739;DHT22;20063;51.730;11.110;2023-07-31T03:20:29;16.10;99.90
33739;DHT22;20063;51.730;11.110;2023-07-31T03:22:54;16.10;99.90
33739;DHT22;20063;51.730;11.110;2023-07-31T03:25:20;16.10;99.90
33739;DHT22;20063;51.730;11.110;2023-07-31T03:27:45;16.20;99.90
33739;DHT22;20063;51.730;11.110;2023-07-31T03:30:12;16.10;99.90
33739;DHT22;20063;51.730;11.110;2023-07-31T03:32:38;16.10;99.90
33739;DHT22;20063;51.730;11.110;2023-07-31T03:35:04;16.10;99.90
33739;DHT22;20063;51.730;11.110;2023-07-31T03:37:30;16.10;99.90
33739;DHT22;20063;51.730;11.110;2023-07-31T03:39:56;16.10;99.90
33739;DHT22;20063;51.730;11.110;2023-07-31T03:42:22;16.10;99.90
33739;DHT22;20063;51.730;11.110;2023-07-31T03:44:48;16.10;99.90
33739;DHT22;20063;51.730;11.110;2023-07-31T03:47:13;16.10;99.90
33739;DHT22;20063;51.730;11.110;2023-07-31T03:49:39;16.10;99.90
33739;DHT22;20063;51.730;11.110;2023-07-31T03:52:07;16.20;99.90
33739;DHT22;20063;51.730;11.110;2023-07-31T03:54:33;16.20;99.90
33739;DHT22;20063;51.730;11.110;2023-07-31T03:56:59;16.10;99.90
33739;DHT22;20063;51.730;11.110;2023-07-31T03:59:24;16.10;99.90
33739;DHT22;20063;51.730;11.110;2023-07-31T04:01:53;16.20;99.90
33739;DHT22;20063;51.730;11.110;2023-07-31T04:04:19;16.20;99.90
33739;DHT22;20063;51.730;11.110;2023-07-31T04:06:45;16.20;99.90
33739;DHT22;20063;51.730;11.110;2023-07-31T04:09:11;16.20;99.90
33739;DHT22;20063;51.730;11.110;2023-07-31T04:11:36;16.10;99.90
33739;DHT22;20063;51.730;11.110;2023-07-31T04:14:02;16.10;99.90
33739;DHT22;20063;51.730;11.110;2023-07-31T04:16:27;16.10;99.90
33739;DHT22;20063;51.730;11.110;2023-07-31T04:18:53;16.10;99.90
33739;DHT22;20063;51.730;11.110;2023-07-31T04:21:18;16.10;99.90
33739;DHT22;20063;51.730;11.110;2023-07-31T04:23:44;16.00;99.90
33739;DHT22;20063;51.730;11.110;2023-07-31T04:26:10;16.10;99.90
33739;DHT22;20063;51.730;11.110;2023-07-31T04:28:35;16.00;99.90
33739;DHT22;20063;51.730;11.110;2023-07-31T04:31:01;16.10;99.90
33739;DHT22;20063;51.730;11.110;2023-07-31T04:33:26;16.00;99.90
33739;DHT22;20063;51.730;11.110;2023-07-31T04:35:53;16.10;99.90
33739;DHT22;20063;51.730;11.110;2023-07-31T04:38:22;16.10;99.90
33739;DHT22;20063;51.730;11.110;2023-07-31T04:40:48;16.10;99.90
33739;DHT22;20063;51.730;11.110;2023-07-31T04:43:14;16.10;99.90
33739;DHT22;20063;51.730;11.110;2023-07-31T04:45:41;16.10;99.90
33739;DHT22;20063;51.730;11.110;2023-07-31T04:48:07;16.20;99.90
33739;DHT22;20063;51.730;11.110;2023-07-31T04:50:33;16.20;99.90
33739;DHT22;20063;51.730;11.110;2023-07-31T04:52:58;16.20;99.90
33739;DHT22;20063;51.730;11.110;2023-07-31T04:55:24;16.20;99.90
33739;DHT22;20063;51.730;11.110;2023-07-31T04:57:49;16.20;99.90
33739;DHT22;20063;51.730;11.110;2023-07-31T05:00:18;16.20;99.90
33739;DHT22;20063;51.730;11.110;2023-07-31T05:02:43;16.20;99.90
33739;DHT22;20063;51.730;11.110;2023-07-31T05:05:09;16.20;99.90
33739;DHT22;20063;51.730;11.110;2023-07-31T05:07:35;16.30;99.90
33739;DHT22;20063;51.730;11.110;2023-07-31T05:10:00;16.30;99.90
33739;DHT22;20063;51.730;11.110;2023-07-31T05:12:26;16.40;99.90
33739;DHT22;20063;51.730;11.110;2023-07-31T05:14:51;16.40;99.90
33739;DHT22;20063;51.730;11.110;2023-07-31T05:17:17;16.40;99.90
33739;DHT22;20063;51.730;11.110;2023-07-31T05:19:42;16.50;99.90
33739;DHT22;20063;51.730;11.110;2023-07-31T05:22:08;16.50;99.90
33739;DHT22;20063;51.730;11.110;2023-07-31T05:24:34;16.50;99.90
33739;DHT22;20063;51.730;11.110;2023-07-31T05:26:59;16.50;99.90
33739;DHT22;20063;51.730;11.110;2023-07-31T05:29:25;16.50;99.90
33739;DHT22;20063;51.730;11.110;2023-07-31T05:31:50;16.60;99.90
33739;DHT22;20063;51.730;11.110;2023-07-31T05:34:16;16.60;99.90
33739;DHT22;20063;51.730;11.110;2023-07-31T05:36:41;16.60;99.90
33739;DHT22;20063;51.730;11.110;2023-07-31T05:39:07;16.70;99.90
33739;DHT22;20063;51.730;11.110;2023-07-31T05:41:35;16.70;99.90
33739;DHT22;20063;51.730;11.110;2023-07-31T05:44:00;16.80;99.90
33739;DHT22;20063;51.730;11.110;2023-07-31T05:46:26;16.70;99.90
33739;DHT22;20063;51.730;11.110;2023-07-31T05:48:51;16.80;99.90
33739;DHT22;20063;51.730;11.110;2023-07-31T05:51:17;16.80;99.90
33739;DHT22;20063;51.730;11.110;2023-07-31T05:53:43;16.80;99.90
33739;DHT22;20063;51.730;11.110;2023-07-31T05:56:09;16.80;99.90
33739;DHT22;20063;51.730;11.110;2023-07-31T05:58:34;16.80;99.90
33739;DHT22;20063;51.730;11.110;2023-07-31T06:01:03;16.80;99.90
33739;DHT22;20063;51.730;11.110;2023-07-31T06:03:28;16.80;99.90
33739;DHT22;20063;51.730;11.110;2023-07-31T06:05:54;16.80;99.90
33739;DHT22;20063;51.730;11.110;2023-07-31T06:08:19;16.80;99.90
33739;DHT22;20063;51.730;11.110;2023-07-31T06:10:48;16.80;99.90
33739;DHT22;20063;51.730;11.110;2023-07-31T06:13:14;16.80;99.90
33739;DHT22;20063;51.730;11.110;2023-07-31T06:15:39;16.80;99.90
33739;DHT22;20063;51.730;11.110;2023-07-31T06:18:05;16.80;99.90
33739;DHT22;20063;51.730;11.110;2023-07-31T06:20:33;16.80;99.90
33739;DHT22;20063;51.730;11.110;2023-07-31T06:23:00;16.80;99.90
33739;DHT22;20063;51.730;11.110;2023-07-31T06:25:26;16.80;99.90
33739;DHT22;20063;51.730;11.110;2023-07-31T06:27:51;16.90;99.90
33739;DHT22;20063;51.730;11.110;2023-07-31T06:30:17;16.90;99.90
33739;DHT22;20063;51.730;11.110;2023-07-31T06:32:42;17.00;99.90
33739;DHT22;20063;51.730;11.110;2023-07-31T06:35:08;16.90;99.90
33739;DHT22;20063;51.730;11.110;2023-07-31T06:37:34;17.00;99.90
33739;DHT22;20063;51.730;11.110;2023-07-31T06:40:00;16.90;99.90
33739;DHT22;20063;51.730;11.110;2023-07-31T06:42:25;17.00;99.90
33739;DHT22;20063;51.730;11.110;2023-07-31T06:44:51;17.00;99.90
33739;DHT22;20063;51.730;11.110;2023-07-31T06:47:16;17.10;99.90
33739;DHT22;20063;51.730;11.110;2023-07-31T06:49:42;17.10;99.90
33739;DHT22;20063;51.730;11.110;2023-07-31T06:52:08;17.10;99.90
33739;DHT22;20063;51.730;11.110;2023-07-31T06:54:33;17.20;99.90
33739;DHT22;20063;51.730;11.110;2023-07-31T06:56:59;17.10;99.90
33739;DHT22;20063;51.730;11.110;2023-07-31T06:59:24;17.20;99.90
33739;DHT22;20063;51.730;11.110;2023-07-31T07:01:50;17.20;99.90
33739;DHT22;20063;51.730;11.110;2023-07-31T07:04:15;17.20;99.90
33739;DHT22;20063;51.730;11.110;2023-07-31T07:06:41;17.30;99.90
33739;DHT22;20063;51.730;11.110;2023-07-31T07:09:07;17.30;99.90
33739;DHT22;20063;51.730;11.110;2023-07-31T07:11:33;17.30;99.90
33739;DHT22;20063;51.730;11.110;2023-07-31T07:13:59;17.40;99.90
33739;DHT22;20063;51.730;11.110;2023-07-31T07:16:28;17.40;99.90
33739;DHT22;20063;51.730;11.110;2023-07-31T07:18:54;17.50;99.90
33739;DHT22;20063;51.730;11.110;2023-07-31T07:21:20;17.40;99.90
33739;DHT22;20063;51.730;11.110;2023-07-31T07:23:45;17.40;99.90
33739;DHT22;20063;51.730;11.110;2023-07-31T07:26:11;17.50;99.90
33739;DHT22;20063;51.730;11.110;2023-07-31T07:28:36;17.50;99.90
33739;DHT22;20063;51.730;11.110;2023-07-31T07:31:05;17.60;99.90
33739;DHT22;20063;51.730;11.110;2023-07-31T07:33:31;17.60;99.90
33739;DHT22;20063;51.730;11.110;2023-07-31T07:36:00;17.70;99.90
33739;DHT22;20063;51.730;11.110;2023-07-31T07:38:27;17.80;99.90
33739;DHT22;20063;51.730;11.110;2023-07-31T07:40:52;17.80;99.90
33739;DHT22;20063;51.730;11.110;2023-07-31T07:43:18;17.90;99.90
33739;DHT22;20063;51.730;11.110;2023-07-31T07:45:44;18.00;99.90
33739;DHT22;20063;51.730;11.110;2023-07-31T07:48:10;18.00;99.90
33739;DHT22;20063;51.730;11.110;2023-07-31T07:50:37;17.90;99.90
33739;DHT22;20063;51.730;11.110;2023-07-31T07:53:03;18.00;99.90
33739;DHT22;20063;51.730;11.110;2023-07-31T07:55:29;18.00;99.90
33739;DHT22;20063;51.730;11.110;2023-07-31T07:57:54;18.10;99.90
33739;DHT22;20063;51.730;11.110;2023-07-31T08:00:20;18.00;99.90
33739;DHT22;20063;51.730;11.110;2023-07-31T08:02:45;18.10;99.90
33739;DHT22;20063;51.730;11.110;2023-07-31T08:05:11;18.00;99.90
33739;DHT22;20063;51.730;11.110;2023-07-31T08:07:36;18.00;99.90
33739;DHT22;20063;51.730;11.110;2023-07-31T08:10:02;18.00;99.90
33739;DHT22;20063;51.730;11.110;2023-07-31T08:12:28;18.00;99.90
33739;DHT22;20063;51.730;11.110;2023-07-31T08:14:53;18.10;99.90
33739;DHT22;20063;51.730;11.110;2023-07-31T08:17:19;18.10;99.90
33739;DHT22;20063;51.730;11.110;2023-07-31T08:19:47;18.20;99.90
33739;DHT22;20063;51.730;11.110;2023-07-31T08:22:13;18.20;99.90
33739;DHT22;20063;51.730;11.110;2023-07-31T08:24:39;18.30;99.90
33739;DHT22;20063;51.730;11.110;2023-07-31T08:27:06;18.30;99.90
33739;DHT22;20063;51.730;11.110;2023-07-31T08:29:32;18.30;99.90
33739;DHT22;20063;51.730;11.110;2023-07-31T08:31:57;18.30;99.90
33739;DHT22;20063;51.730;11.110;2023-07-31T08:34:23;18.40;99.90
33739;DHT22;20063;51.730;11.110;2023-07-31T08:36:48;18.30;99.90
33739;DHT22;20063;51.730;11.110;2023-07-31T08:39:14;18.30;99.90
33739;DHT22;20063;51.730;11.110;2023-07-31T08:41:40;18.40;99.90
33739;DHT22;20063;51.730;11.110;2023-07-31T08:44:06;18.30;99.90
33739;DHT22;20063;51.730;11.110;2023-07-31T08:46:33;18.30;99.90
33739;DHT22;20063;51.730;11.110;2023-07-31T08:48:59;18.30;99.90
33739;DHT22;20063;51.730;11.110;2023-07-31T08:51:26;18.30;99.90
33739;DHT22;20063;51.730;11.110;2023-07-31T08:53:53;18.30;99.90
33739;DHT22;20063;51.730;11.110;2023-07-31T08:56:19;18.30;99.90
33739;DHT22;20063;51.730;11.110;2023-07-31T08:58:46;18.30;99.90
33739;DHT22;20063;51.730;11.110;2023-07-31T09:01:13;18.30;99.90
33739;DHT22;20063;51.730;11.110;2023-07-31T09:03:40;18.30;99.90
33739;DHT22;20063;51.730;11.110;2023-07-31T09:06:07;18.20;99.90
33739;DHT22;20063;51.730;11.110;2023-07-31T09:08:33;18.30;99.90
33739;DHT22;20063;51.730;11.110;2023-07-31T09:11:00;18.30;99.90
33739;DHT22;20063;51.730;11.110;2023-07-31T09:13:29;18.30;99.90
33739;DHT22;20063;51.730;11.110;2023-07-31T09:15:55;18.30;99.90
33739;DHT22;20063;51.730;11.110;2023-07-31T09:18:21;18.20;99.90
33739;DHT22;20063;51.730;11.110;2023-07-31T09:21:04;18.30;99.90
33739;DHT22;20063;51.730;11.110;2023-07-31T09:23:44;18.30;99.90
33739;DHT22;20063;51.730;11.110;2023-07-31T09:28:37;18.30;99.90
33739;DHT22;20063;51.730;11.110;2023-07-31T09:31:03;18.30;99.90
33739;DHT22;20063;51.730;11.110;2023-07-31T09:33:28;18.30;99.90
33739;DHT22;20063;51.730;11.110;2023-07-31T09:35:54;18.30;99.90
33739;DHT22;20063;51.730;11.110;2023-07-31T09:38:19;18.30;99.90
33739;DHT22;20063;51.730;11.110;2023-07-31T09:40:49;18.30;99.90
33739;DHT22;20063;51.730;11.110;2023-07-31T09:43:19;18.30;99.90
33739;DHT22;20063;51.730;11.110;2023-07-31T09:45:46;18.20;99.90
33739;DHT22;20063;51.730;11.110;2023-07-31T09:48:13;18.20;99.90
33739;DHT22;20063;51.730;11.110;2023-07-31T09:50:43;18.20;99.90
33739;DHT22;20063;51.730;11.110;2023-07-31T09:53:09;18.20;99.90
33739;DHT22;20063;51.730;11.110;2023-07-31T09:55:36;18.10;99.90
33739;DHT22;20063;51.730;11.110;2023-07-31T09:58:07;18.10;99.90
33739;DHT22;20063;51.730;11.110;2023-07-31T10:00:33;18.20;99.90
33739;DHT22;20063;51.730;11.110;2023-07-31T10:03:01;18.20;99.90
33739;DHT22;20063;51.730;11.110;2023-07-31T10:05:46;18.30;99.90
33739;DHT22;20063;51.730;11.110;2023-07-31T10:08:15;18.30;99.90
33739;DHT22;20063;51.730;11.110;2023-07-31T10:10:43;18.40;99.90
33739;DHT22;20063;51.730;11.110;2023-07-31T10:13:09;18.40;99.90
33739;DHT22;20063;51.730;11.110;2023-07-31T10:15:36;18.40;99.90
33739;DHT22;20063;51.730;11.110;2023-07-31T10:18:02;18.40;99.90
33739;DHT22;20063;51.730;11.110;2023-07-31T10:20:28;18.40;99.90
33739;DHT22;20063;51.730;11.110;2023-07-31T10:22:55;18.40;99.90
33739;DHT22;20063;51.730;11.110;2023-07-31T10:25:22;18.40;99.90
33739;DHT22;20063;51.730;11.110;2023-07-31T10:27:48;18.50;99.90
33739;DHT22;20063;51.730;11.110;2023-07-31T10:30:16;18.50;99.90
33739;DHT22;20063;51.730;11.110;2023-07-31T10:32:44;18.50;99.90
33739;DHT22;20063;51.730;11.110;2023-07-31T10:35:11;18.60;99.90
33739;DHT22;20063;51.730;11.110;2023-07-31T10:37:39;18.70;99.90
33739;DHT22;20063;51.730;11.110;2023-07-31T10:42:53;18.70;99.90
33739;DHT22;20063;51.730;11.110;2023-07-31T10:48:05;18.70;99.90
33739;DHT22;20063;51.730;11.110;2023-07-31T10:50:55;18.70;99.90
33739;DHT22;20063;51.730;11.110;2023-07-31T10:53:31;18.80;99.90
33739;DHT22;20063;51.730;11.110;2023-07-31T10:56:02;18.80;99.90
33739;DHT22;20063;51.730;11.110;2023-07-31T10:58:28;18.90;99.90
33739;DHT22;20063;51.730;11.110;2023-07-31T11:00:59;18.90;99.90
33739;DHT22;20063;51.730;11.110;2023-07-31T11:03:27;18.90;99.90
33739;DHT22;20063;51.730;11.110;2023-07-31T11:06:09;19.00;99.90
33739;DHT22;20063;51.730;11.110;2023-07-31T11:08:42;19.00;99.90
33739;DHT22;20063;51.730;11.110;2023-07-31T11:11:09;19.10;99.90
33739;DHT22;20063;51.730;11.110;2023-07-31T11:13:45;19.10;99.90
33739;DHT22;20063;51.730;11.110;2023-07-31T11:16:13;19.10;99.90
33739;DHT22;20063;51.730;11.110;2023-07-31T11:18:44;19.20;99.90
33739;DHT22;20063;51.730;11.110;2023-07-31T11:21:14;19.10;99.90
33739;DHT22;20063;51.730;11.110;2023-07-31T11:23:40;19.00;99.90
33739;DHT22;20063;51.730;11.110;2023-07-31T11:26:07;19.00;99.90
33739;DHT22;20063;51.730;11.110;2023-07-31T11:28:34;19.00;99.90
33739;DHT22;20063;51.730;11.110;2023-07-31T11:31:02;19.00;99.90
33739;DHT22;20063;51.730;11.110;2023-07-31T11:33:28;19.00;99.90
33739;DHT22;20063;51.730;11.110;2023-07-31T11:35:53;18.90;99.90
33739;DHT22;20063;51.730;11.110;2023-07-31T11:38:30;18.90;99.90
33739;DHT22;20063;51.730;11.110;2023-07-31T11:41:03;18.90;99.90
33739;DHT22;20063;51.730;11.110;2023-07-31T11:43:30;18.90;99.90
33739;DHT22;20063;51.730;11.110;2023-07-31T11:46:00;18.90;99.90
33739;DHT22;20063;51.730;11.110;2023-07-31T11:48:34;18.90;99.90
33739;DHT22;20063;51.730;11.110;2023-07-31T11:51:03;19.00;99.90
33739;DHT22;20063;51.730;11.110;2023-07-31T11:53:33;19.00;99.90
33739;DHT22;20063;51.730;11.110;2023-07-31T11:56:04;19.00;99.90
33739;DHT22;20063;51.730;11.110;2023-07-31T11:58:34;19.00;99.90
33739;DHT22;20063;51.730;11.110;2023-07-31T12:01:00;19.10;99.90
33739;DHT22;20063;51.730;11.110;2023-07-31T12:03:27;19.10;99.90
33739;DHT22;20063;51.730;11.110;2023-07-31T12:05:53;19.20;99.90
33739;DHT22;20063;51.730;11.110;2023-07-31T12:08:21;19.40;99.90
33739;DHT22;20063;51.730;11.110;2023-07-31T12:10:50;19.50;99.90
33739;DHT22;20063;51.730;11.110;2023-07-31T12:13:23;19.70;99.90
33739;DHT22;20063;51.730;11.110;2023-07-31T12:15:54;19.90;99.90
33739;DHT22;20063;51.730;11.110;2023-07-31T12:18:22;20.20;99.90
33739;DHT22;20063;51.730;11.110;2023-07-31T12:21:00;20.40;99.90
33739;DHT22;20063;51.730;11.110;2023-07-31T12:23:28;20.60;99.90
33739;DHT22;20063;51.730;11.110;2023-07-31T12:28:27;20.90;99.90
33739;DHT22;20063;51.730;11.110;2023-07-31T12:30:57;21.00;99.90
33739;DHT22;20063;51.730;11.110;2023-07-31T12:33:24;21.10;99.90
33739;DHT22;20063;51.730;11.110;2023-07-31T12:35:55;21.10;99.90
33739;DHT22;20063;51.730;11.110;2023-07-31T12:38:21;21.30;99.90
33739;DHT22;20063;51.730;11.110;2023-07-31T12:40:46;21.40;99.90
33739;DHT22;20063;51.730;11.110;2023-07-31T12:43:13;21.60;99.90
33739;DHT22;20063;51.730;11.110;2023-07-31T12:45:39;21.70;99.90
33739;DHT22;20063;51.730;11.110;2023-07-31T12:48:04;21.70;99.90
33739;DHT22;20063;51.730;11.110;2023-07-31T12:50:30;21.80;99.90
33739;DHT22;20063;51.730;11.110;2023-07-31T12:52:56;21.90;99.90
33739;DHT22;20063;51.730;11.110;2023-07-31T12:55:22;21.90;99.90
33739;DHT22;20063;51.730;11.110;2023-07-31T12:57:49;21.90;99.90
33739;DHT22;20063;51.730;11.110;2023-07-31T13:00:23;21.90;99.90
33739;DHT22;20063;51.730;11.110;2023-07-31T13:02:49;21.90;99.90
33739;DHT22;20063;51.730;11.110;2023-07-31T13:05:14;22.00;99.90
33739;DHT22;20063;51.730;11.110;2023-07-31T13:07:40;22.10;99.90
33739;DHT22;20063;51.730;11.110;2023-07-31T13:10:07;22.00;99.90
33739;DHT22;20063;51.730;11.110;2023-07-31T13:12:33;21.80;99.90
33739;DHT22;20063;51.730;11.110;2023-07-31T13:14:58;21.70;99.90
33739;DHT22;20063;51.730;11.110;2023-07-31T13:17:24;21.40;99.90
33739;DHT22;20063;51.730;11.110;2023-07-31T13:19:50;21.20;99.90
33739;DHT22;20063;51.730;11.110;2023-07-31T13:22:15;21.00;99.90
33739;DHT22;20063;51.730;11.110;2023-07-31T13:24:41;20.90;99.90
33739;DHT22;20063;51.730;11.110;2023-07-31T13:27:06;20.80;99.90
33739;DHT22;20063;51.730;11.110;2023-07-31T13:29:32;20.70;99.90
33739;DHT22;20063;51.730;11.110;2023-07-31T13:31:58;20.70;99.90
33739;DHT22;20063;51.730;11.110;2023-07-31T13:34:24;20.80;99.90
33739;DHT22;20063;51.730;11.110;2023-07-31T13:36:49;20.90;99.90
33739;DHT22;20063;51.730;11.110;2023-07-31T13:39:15;21.10;99.90
33739;DHT22;20063;51.730;11.110;2023-07-31T13:41:44;21.40;99.90
33739;DHT22;20063;51.730;11.110;2023-07-31T13:44:09;21.50;99.90
33739;DHT22;20063;51.730;11.110;2023-07-31T13:46:35;21.50;99.90
33739;DHT22;20063;51.730;11.110;2023-07-31T13:49:03;21.60;99.90
33739;DHT22;20063;51.730;11.110;2023-07-31T13:51:29;21.50;99.90
33739;DHT22;20063;51.730;11.110;2023-07-31T13:53:57;21.50;99.90
33739;DHT22;20063;51.730;11.110;2023-07-31T13:56:22;21.50;99.90
33739;DHT22;20063;51.730;11.110;2023-07-31T13:58:48;21.30;99.90
33739;DHT22;20063;51.730;11.110;2023-07-31T14:01:22;21.20;99.90
33739;DHT22;20063;51.730;11.110;2023-07-31T14:03:48;20.90;99.90
33739;DHT22;20063;51.730;11.110;2023-07-31T14:06:13;20.80;99.90
33739;DHT22;20063;51.730;11.110;2023-07-31T14:08:39;20.70;99.90
33739;DHT22;20063;51.730;11.110;2023-07-31T14:11:05;20.60;99.90
33739;DHT22;20063;51.730;11.110;2023-07-31T14:13:30;20.40;99.90
33739;DHT22;20063;51.730;11.110;2023-07-31T14:15:56;20.30;99.90
33739;DHT22;20063;51.730;11.110;2023-07-31T14:18:21;20.20;99.90
33739;DHT22;20063;51.730;11.110;2023-07-31T14:20:47;20.10;99.90
33739;DHT22;20063;51.730;11.110;2023-07-31T14:23:13;20.10;99.90
33739;DHT22;20063;51.730;11.110;2023-07-31T14:25:38;20.10;99.90
33739;DHT22;20063;51.730;11.110;2023-07-31T14:28:04;20.00;99.90
33739;DHT22;20063;51.730;11.110;2023-07-31T14:30:30;19.90;99.90
33739;DHT22;20063;51.730;11.110;2023-07-31T14:32:56;19.90;99.90
33739;DHT22;20063;51.730;11.110;2023-07-31T14:35:21;19.90;99.90
33739;DHT22;20063;51.730;11.110;2023-07-31T14:37:47;19.90;99.90
33739;DHT22;20063;51.730;11.110;2023-07-31T14:40:13;19.90;99.90
33739;DHT22;20063;51.730;11.110;2023-07-31T14:42:39;19.90;99.90
33739;DHT22;20063;51.730;11.110;2023-07-31T14:45:08;19.90;99.90
33739;DHT22;20063;51.730;11.110;2023-07-31T14:47:35;19.90;99.90
33739;DHT22;20063;51.730;11.110;2023-07-31T14:50:01;20.00;99.90
33739;DHT22;20063;51.730;11.110;2023-07-31T14:52:27;20.10;99.90
33739;DHT22;20063;51.730;11.110;2023-07-31T14:54:54;20.20;99.90
33739;DHT22;20063;51.730;11.110;2023-07-31T14:57:20;20.20;99.90
33739;DHT22;20063;51.730;11.110;2023-07-31T14:59:46;20.20;99.90
33739;DHT22;20063;51.730;11.110;2023-07-31T15:02:12;20.20;99.90
33739;DHT22;20063;51.730;11.110;2023-07-31T15:04:37;20.20;99.90
33739;DHT22;20063;51.730;11.110;2023-07-31T15:07:03;20.10;99.90
33739;DHT22;20063;51.730;11.110;2023-07-31T15:09:29;20.10;99.90
33739;DHT22;20063;51.730;11.110;2023-07-31T15:11:55;20.10;99.90
33739;DHT22;20063;51.730;11.110;2023-07-31T15:14:21;20.10;99.90
33739;DHT22;20063;51.730;11.110;2023-07-31T15:16:47;20.00;99.90
33739;DHT22;20063;51.730;11.110;2023-07-31T15:19:13;20.00;99.90
33739;DHT22;20063;51.730;11.110;2023-07-31T15:21:39;19.90;99.90
33739;DHT22;20063;51.730;11.110;2023-07-31T15:24:06;19.90;99.90
33739;DHT22;20063;51.730;11.110;2023-07-31T15:26:32;19.90;99.90
33739;DHT22;20063;51.730;11.110;2023-07-31T15:29:03;19.90;99.90
33739;DHT22;20063;51.730;11.110;2023-07-31T15:31:38;19.90;99.90
33739;DHT22;20063;51.730;11.110;2023-07-31T15:34:03;19.90;99.90